METAR Data
IDs: Format: Raw Decoded Include TAF

Data at: 1350 UTC 22 Apr 2021

KZPH 221330Z AUTO 03011KT 10SM CLR 17/08 A3014 RMK A02 T01710082
KZPH 221315Z AUTO 02010KT 10SM CLR 17/09 A3014 RMK A02 T01680085
KZPH 221255Z AUTO 01010KT 10SM CLR 16/09 A3014 RMK A02 T01570086
KZPH 221235Z AUTO 03008KT 10SM CLR 15/09 A3013 RMK A02 T01540088
KZPH 221215Z AUTO 03006KT 10SM CLR 15/08 A3013 RMK A02 T01480085
KZPH 221155Z AUTO 03005KT 10SM CLR 14/10 A3012 RMK A02 T01420097 10168 20125
KZPH 221135Z AUTO 03004KT 10SM CLR 13/10 A3012 RMK A02 T01350096
KZPH 221115Z AUTO 04004KT 10SM CLR 13/10 A3011 RMK A02 T01290100
KZPH 221055Z AUTO 01004KT 10SM CLR 13/11 A3011 RMK A02 T01330106
KZPH 221035Z AUTO 04004KT 10SM CLR 14/11 A3009 RMK A02 T01390111
KZPH 221015Z AUTO 04004KT 10SM CLR 14/11 A3009 RMK A02 T01440112
KZPH 220955Z AUTO 04007KT 10SM CLR 15/12 A3008 RMK A02 T01490117
KZPH 220935Z AUTO 02010KT 10SM CLR 16/12 A3006 RMK A02 T01560123
KZPH 220915Z AUTO 36009KT 10SM CLR 16/13 A3006 RMK A02 T01620127
KZPH 220855Z AUTO 36010KT 10SM CLR 17/13 A3005 RMK A02 T01660130
KZPH 220835Z AUTO 35009KT 10SM CLR 17/14 A3005 RMK A02 T01660140
KZPH 220815Z AUTO 35006KT 10SM CLR 15/14 A3004 RMK A02 T01490144
KZPH 220755Z AUTO 00000KT 10SM CLR 14/13 A3003 RMK A02 T01400133
KZPH 220735Z AUTO 00000KT 10SM CLR 14/13 A3002 RMK A02 T01420132
KZPH 220710Z AUTO 00000KT 10SM CLR 15/14 A3002 RMK A02 T01510135
KZPH 220655Z AUTO 30004KT 10SM CLR 16/14 A3002 RMK A02 T01640144
KZPH 220635Z AUTO 31005KT 10SM CLR 16/14 A3002 RMK A02 T01640145
KZPH 220615Z AUTO 31006KT 10SM CLR 16/14 A3002 RMK A02 T01590144
KZPH 220555Z AUTO 31003KT 10SM CLR 15/14 A3003 RMK A02 T01510140 10227 20137
KZPH 220535Z AUTO 00000KT 10SM CLR 14/13 A3004 RMK A02 T01430126
KZPH 220515Z AUTO 29003KT 10SM CLR 16/14 A3005 RMK A02 T01580138
KZPH 220455Z AUTO 31004KT 10SM CLR 16/14 A3005 RMK A02 T01620139
KZPH 220435Z AUTO 28003KT 10SM CLR 15/13 A3006 RMK A02 T01510130
KZPH 220415Z AUTO 00000KT 10SM CLR 16/13 A3007 RMK A02 T01600134
KZPH 220355Z AUTO 21004KT 10SM CLR 15/13 A3006 RMK A02 T01490129
KZPH 220335Z AUTO 19004KT 10SM CLR 15/12 A3006 RMK A02 T01490124
KZPH 220315Z AUTO 00000KT 10SM CLR 15/13 A3006 RMK A02 T01550126
KZPH 220255Z AUTO 00000KT 10SM CLR 17/13 A3005 RMK A02 T01670126
KZPH 220235Z AUTO 00000KT 10SM CLR 16/12 A3005 RMK A02 T01620124
KZPH 220215Z AUTO 00000KT 10SM CLR 17/12 A3005 RMK A02 T01660121
KZPH 220155Z AUTO 23003KT 10SM CLR 17/12 A3004 RMK A02 T01750123
KZPH 220135Z AUTO 24004KT 10SM CLR 18/12 A3003 RMK A02 T01820120
KZPH 220115Z AUTO 25003KT 7SM CLR 19/12 A3003 RMK A02 T01870118
KZPH 220055Z AUTO 25004KT 10SM CLR 20/12 A3002 RMK A02 T02010116
KZPH 220035Z AUTO 26004KT 10SM CLR 21/11 A3002 RMK A02 T02050114
KZPH 220015Z AUTO 26005KT 10SM CLR 22/11 A3002 RMK A02 T02170112
KZPH 212355Z AUTO 27005KT 10SM CLR 23/11 A3001 RMK A02 T02280108 10294 20225 402940183
KZPH 212335Z AUTO 27008KT 10SM CLR 24/10 A3001 RMK A02 T02390100
KZPH 212315Z AUTO 29012KT 10SM CLR 25/10 A3001 RMK A02 T02470097
KZPH 212255Z AUTO 28008KT 10SM CLR 25/10 A3000 RMK A02 T02530097
KZPH 212235Z AUTO 29009KT 10SM CLR 26/10 A3000 RMK A02 T02600097
KZPH 212215Z AUTO 30011KT 10SM CLR 26/10 A2999 RMK A02 T02640097
KZPH 212155Z AUTO 28013KT 10SM CLR 27/09 A2999 RMK A02 T02700092
KZPH 212135Z AUTO 29013G19KT 10SM CLR 27/10 A2999 RMK A02 T02740097
KZPH 212115Z AUTO 28012KT 10SM CLR 28/10 A2998 RMK A02 T02780096
KZPH 212055Z AUTO 31009G16KT 10SM CLR 28/11 A2998 RMK A02 T02840106
KZPH 212035Z AUTO 31009KT 10SM CLR 28/10 A2998 RMK A02 T02850103
KZPH 212015Z AUTO 31011G16KT 10SM CLR 29/10 A2998 RMK A02 T02860098
KZPH 211955Z AUTO 32011KT 260V330 10SM CLR 29/10 A2998 RMK A02 T02880097
KZPH 211935Z AUTO 30008G14KT 10SM CLR 29/11 A2998 RMK A02 T02870109
KZPH 211915Z AUTO 25010G17KT 10SM CLR 29/11 A2999 RMK A02 T02870113
KZPH 211855Z AUTO 29010G14KT 10SM CLR 29/11 A3000 RMK A02 T02860106
KZPH 211835Z AUTO 10SM CLR 28/12 A3000 RMK A02
KZPH 211815Z AUTO 10SM CLR 28/12 A3001 RMK A02 T02800121
KZPH 211755Z AUTO 29008G20KT 10SM CLR 28/13 A3002 RMK A02 T02780130 10281 20207
KZPH 211735Z AUTO 29004KT 10SM CLR 27/16 A3001 RMK A02 T02750158
KZPH 211715Z AUTO 35009KT 10SM CLR 27/13 A3002 RMK A02 T02730132
KZPH 211655Z AUTO 33007KT 10SM CLR 27/15 A3003 RMK A02 T02670145
KZPH 211635Z AUTO 30009KT 10SM CLR 26/16 A3003 RMK A02 T02620161
KZPH 211615Z AUTO 32007KT 10SM CLR 26/16 A3004 RMK A02 T02590162
KZPH 211555Z AUTO 10SM CLR 26/16 A3004 RMK A02 T02560161
KZPH 211535Z AUTO 10SM SCT065 25/16 A3005 RMK A02 T02480158
KZPH 211515Z AUTO 36007KT 10SM SCT065 24/16 A3005 RMK A02 T02450163
KZPH 211455Z AUTO 34007KT 320V020 10SM BKN065 24/17 A3004 RMK A02 T02380168
KZPH 211435Z AUTO 33008KT 10SM SCT019 OVC065 23/18 A3003 RMK A02 T02320176
KZPH 211415Z AUTO 02005KT 10SM BKN019 OVC065 23/19 A3003 RMK A02 T02260187
KZPH 211355Z AUTO 36005KT 10SM SCT011 SCT019 OVC065 22/19 A3003 RMK A02 T02210189
KZPH 211335Z AUTO 33005KT 10SM BKN011 OVC065 22/19 A3003 RMK A02 T02200194
KZPH 211315Z AUTO 35005KT 10SM BKN011 OVC065 22/20 A3002 RMK A02 T02170196
KZPH 211255Z AUTO 34007KT 10SM SCT009 OVC065 21/19 A3002 RMK A02 T02140194
KZPH 211235Z AUTO 32007KT 10SM OVC065 21/19 A3001 RMK A02 T02110191
KZPH 211215Z AUTO 31005KT 10SM OVC065 21/19 A3001 RMK A02 T02090192
KZPH 211155Z AUTO 31005KT 10SM OVC065 21/19 A3001 RMK A02 LTG DSNT S T02060194 10209 20197 70048
KZPH 211135Z AUTO 33004KT 10SM OVC065 20/20 A3000 RMK A02 T02040195
KZPH 211115Z AUTO 31004KT 10SM OVC065 20/20 A3000 RMK A02 T02030196
KZPH 211055Z AUTO 29003KT 10SM BKN065 20/20 A3000 RMK A02 T02010196
KZPH 211035Z AUTO 30004KT 10SM SCT065 20/19 A2999 RMK A02 T02000195
KZPH 211015Z AUTO 30005KT 10SM CLR 20/20 A2998 RMK A02 T02000195
KZPH 210955Z AUTO 27004KT 10SM CLR 20/20 A2998 RMK A02 T02020197
KZPH 210935Z AUTO 27003KT 7SM SCT095 20/20 A2998 RMK A02 T02030198
KZPH 210915Z AUTO 00000KT 10SM SCT025 20/20 A2997 RMK A02 T02050200
KZPH 210855Z AUTO 27003KT 10SM SCT022 BKN027 21/20 A2997 RMK A02 T02070202
KZPH 210835Z AUTO 00000KT 7SM SCT014 SCT019 OVC025 21/20 A2997 RMK A02 T02080203
KZPH 210815Z AUTO 21003KT 7SM SCT016 OVC027 21/20 A2997 RMK A02 T02070202
KZPH 210755Z AUTO 00000KT 10SM BKN016 OVC026 21/20 A2997 RMK A02 T02070202
KZPH 210735Z AUTO 00000KT 7SM OVC016 20/20 A2997 RMK A02 T02050201
KZPH 210715Z AUTO 00000KT 10SM OVC018 20/20 A2997 RMK A02 T02040200
KZPH 210655Z AUTO 00000KT 7SM OVC018 20/20 A2996 RMK A02 T02000197
KZPH 210635Z AUTO 15003KT 7SM BR OVC018 20/20 A2996 RMK A02 T01990195
KZPH 210615Z AUTO 00000KT 7SM OVC018 20/20 A2997 RMK A02 T02000196
KZPH 210555Z AUTO 00000KT 7SM OVC018 20/20 A2997 RMK A02 T01990195 10211 20183
KZPH 210535Z AUTO 00000KT 7SM BR OVC020 20/19 A2997 RMK A02 T01960192
KZPH 210515Z AUTO 00000KT 3/4SM BR BKN004 OVC020 19/19 A2998 RMK A02 T01940191
KZPH 210455Z AUTO 00000KT 1/2SM FG BKN004 BKN020 19/19 A2998 RMK A02 T01920188
KZPH 210435Z AUTO 00000KT 3SM BR CLR 19/19 A2998 RMK A02 VIS 1V5 T01940190
KZPH 210415Z AUTO 00000KT 3SM BR CLR 20/19 A2997 RMK A02 T01950191
KZPH 210355Z AUTO 00000KT 4SM BR CLR 20/19 A2998 RMK A02 T01990194
KZPH 210335Z AUTO 00000KT 10SM CLR 20/19 A2998 RMK A02 T02010194
KZPH 210315Z AUTO 00000KT 10SM SCT035 20/20 A2998 RMK A02 T02050196
KZPH 210255Z AUTO 00000KT 10SM SCT024 BKN030 OVC035 21/20 A2998 RMK A02 T02080198
KZPH 210235Z AUTO 00000KT 10SM SCT022 OVC029 21/20 A2998 RMK A02 T02080199
KZPH 210215Z AUTO 00000KT 10SM BKN020 OVC029 21/20 A2998 RMK A02 T02080198
KZPH 210155Z AUTO 00000KT 10SM BKN020 OVC029 21/20 A2997 RMK A02 T02080199